Time;durP1;ratioP1;P1;durP2;ratioP2;P2;SDS_P1;SDS_P2;PMS_P1;PMS_P2;Temp;Humidity;BMP_temperature;BMP_pressure;BME280_temperature;BME280_humidity;BME280_pressure;Samples;Min_cycle;Max_cycle;Signal;HPM_P1;HPM_P2
2022/05/08 00:00:10;;;;;;;22.77;15.90;;;14.20;99.90;;;;;;5030987;28;20411;-81
2022/05/08 00:02:36;;;;;;;25.87;16.23;;;14.20;99.90;;;;;;5032644;28;20259;-82
2022/05/08 00:05:01;;;;;;;21.03;15.20;;;14.10;99.90;;;;;;5031479;28;20494;-82
2022/05/08 00:07:27;;;;;;;24.70;16.87;;;14.20;99.90;;;;;;5030965;28;20363;-81
2022/05/08 00:09:52;;;;;;;26.80;16.67;;;14.10;99.90;;;;;;5032497;28;20590;-81
2022/05/08 00:12:18;;;;;;;24.50;16.03;;;14.10;99.90;;;;;;5030940;28;20214;-81
2022/05/08 00:14:45;;;;;;;22.90;15.37;;;14.00;99.90;;;;;;5032515;28;20177;-81
2022/05/08 00:17:12;;;;;;;21.90;16.03;;;14.00;99.90;;;;;;5032083;28;20200;-81
2022/05/08 00:19:44;;;;;;;25.40;16.30;;;13.90;99.90;;;;;;5031255;28;20452;-82
2022/05/08 00:22:11;;;;;;;20.30;14.07;;;13.90;99.90;;;;;;5032515;28;20415;-82
2022/05/08 00:24:38;;;;;;;22.87;16.03;;;13.90;99.90;;;;;;5031162;28;20431;-81
2022/05/08 00:27:04;;;;;;;19.00;15.43;;;13.90;99.90;;;;;;5082672;22;20510;-80
2022/05/08 00:29:30;;;;;;;21.40;15.00;;;13.80;99.90;;;;;;5050379;28;20410;-80
2022/05/08 00:31:56;;;;;;;21.37;15.47;;;13.80;99.90;;;;;;5049950;28;20520;-80
2022/05/08 00:34:22;;;;;;;21.20;16.57;;;13.80;99.90;;;;;;5051521;28;20184;-81
2022/05/08 00:36:48;;;;;;;23.07;16.60;;;13.70;99.90;;;;;;5051530;28;20478;-80
2022/05/08 00:39:16;;;;;;;20.97;15.37;;;13.70;99.90;;;;;;5051510;28;20418;-80
2022/05/08 00:41:42;;;;;;;24.27;16.53;;;13.70;99.90;;;;;;5051118;28;20183;-81
2022/05/08 00:44:08;;;;;;;18.83;15.00;;;13.70;99.90;;;;;;5051258;28;20955;-81
2022/05/08 00:46:33;;;;;;;21.40;15.23;;;13.70;99.90;;;;;;5051403;28;20618;-81
2022/05/08 00:48:59;;;;;;;19.90;14.83;;;13.70;99.90;;;;;;5051043;28;20554;-80
2022/05/08 00:51:28;;;;;;;22.90;16.47;;;13.60;99.90;;;;;;5051540;28;20298;-80
2022/05/08 00:53:56;;;;;;;23.47;15.77;;;13.70;99.90;;;;;;5050947;28;20225;-80
2022/05/08 00:56:22;;;;;;;23.60;15.43;;;13.70;99.90;;;;;;5050764;28;20446;-80
2022/05/08 00:58:54;;;;;;;19.23;14.20;;;13.80;99.90;;;;;;5054079;28;21023;-81
2022/05/08 01:01:20;;;;;;;22.00;15.20;;;13.80;99.90;;;;;;5054510;28;20245;-80
2022/05/08 01:03:47;;;;;;;25.30;15.33;;;13.80;99.90;;;;;;5054439;28;20828;-81
2022/05/08 01:06:14;;;;;;;20.03;15.80;;;13.80;99.90;;;;;;5054292;28;20512;-81
2022/05/08 01:08:43;;;;;;;19.87;15.10;;;13.90;99.90;;;;;;5054122;28;20464;-80
2022/05/08 01:11:09;;;;;;;22.20;14.93;;;13.90;99.90;;;;;;5054065;28;20470;-81
2022/05/08 01:13:36;;;;;;;20.83;15.57;;;14.00;99.90;;;;;;5053762;28;20426;-80
2022/05/08 01:16:02;;;;;;;24.43;16.33;;;14.10;99.90;;;;;;5053693;28;20437;-80
2022/05/08 01:18:28;;;;;;;22.20;15.33;;;14.10;99.90;;;;;;5053847;28;20414;-82
2022/05/08 01:20:54;;;;;;;22.87;14.83;;;14.20;99.90;;;;;;5053781;28;20444;-80
2022/05/08 01:23:21;;;;;;;20.90;15.60;;;14.20;99.90;;;;;;5053465;28;20430;-80
2022/05/08 01:25:52;;;;;;;20.83;15.10;;;14.30;99.90;;;;;;5053799;28;20437;-80
2022/05/08 01:28:19;;;;;;;21.80;15.50;;;14.40;99.90;;;;;;5053691;28;20930;-80
2022/05/08 01:30:47;;;;;;;21.27;15.27;;;14.50;99.90;;;;;;5053397;28;20516;-79
2022/05/08 01:33:13;;;;;;;22.83;16.60;;;14.50;99.90;;;;;;5053380;28;20421;-80
2022/05/08 01:35:40;;;;;;;21.30;15.73;;;14.60;99.90;;;;;;5053807;28;20455;-81
2022/05/08 01:38:07;;;;;;;21.87;15.60;;;14.60;99.90;;;;;;5053362;28;20450;-81
2022/05/08 01:40:33;;;;;;;25.03;17.23;;;14.60;99.90;;;;;;5054434;28;20445;-80
2022/05/08 01:42:59;;;;;;;20.83;15.70;;;14.70;99.90;;;;;;5053415;28;20428;-79
2022/05/08 01:45:25;;;;;;;25.50;17.67;;;14.80;99.90;;;;;;5052638;28;20425;-79
2022/05/08 01:50:37;;;;;;;26.83;16.77;;;14.80;99.90;;;;;;5053985;28;20453;-79
2022/05/08 01:53:03;;;;;;;27.47;17.07;;;14.90;99.90;;;;;;5052584;28;20426;-79
2022/05/08 01:55:29;;;;;;;25.17;17.10;;;14.90;99.90;;;;;;5052542;28;20432;-80
2022/05/08 01:57:55;;;;;;;22.43;16.20;;;15.00;99.90;;;;;;5052670;28;20446;-79
2022/05/08 02:00:24;;;;;;;20.20;15.47;;;14.90;99.90;;;;;;5052335;28;20282;-80
2022/05/08 02:02:51;;;;;;;21.60;15.60;;;15.00;99.90;;;;;;5052481;28;20512;-79
2022/05/08 02:05:17;;;;;;;23.80;16.00;;;15.00;99.90;;;;;;5052283;28;20429;-80
2022/05/08 02:07:45;;;;;;;27.43;16.70;;;15.00;99.90;;;;;;5052367;28;20476;-79
2022/05/08 02:10:15;;;;;;;24.23;17.00;;;15.00;99.90;;;;;;5050870;28;21004;-80
2022/05/08 02:12:41;;;;;;;22.80;15.60;;;15.00;99.90;;;;;;5052312;28;20836;-80
2022/05/08 02:15:09;;;;;;;23.27;15.93;;;15.00;99.90;;;;;;5052175;28;20418;-79
2022/05/08 02:17:35;;;;;;;25.23;16.53;;;14.90;99.90;;;;;;5051847;28;20795;-80
2022/05/08 02:20:02;;;;;;;25.50;16.70;;;14.90;99.90;;;;;;5051750;28;20426;-80
2022/05/08 02:22:28;;;;;;;21.87;14.30;;;14.80;99.90;;;;;;5051720;28;20909;-80
2022/05/08 02:24:54;;;;;;;23.10;15.37;;;14.80;99.90;;;;;;5051975;28;20487;-80
2022/05/08 02:27:21;;;;;;;21.80;14.40;;;14.80;99.90;;;;;;5035468;28;20239;-80
2022/05/08 02:29:48;;;;;;;21.23;14.00;;;14.70;99.90;;;;;;5050820;28;20829;-80
2022/05/08 02:32:14;;;;;;;17.70;12.60;;;14.70;99.90;;;;;;5051453;28;20239;-80
2022/05/08 02:34:40;;;;;;;19.20;13.47;;;14.60;99.90;;;;;;5051443;28;20832;-79
2022/05/08 02:37:06;;;;;;;21.23;13.10;;;14.60;99.90;;;;;;5051741;28;20453;-79
2022/05/08 02:39:32;;;;;;;18.10;11.70;;;14.60;99.90;;;;;;5051747;28;20425;-80
2022/05/08 02:41:58;;;;;;;13.30;9.90;;;14.60;99.90;;;;;;5051400;28;20188;-79
2022/05/08 02:44:24;;;;;;;21.83;11.03;;;14.40;99.90;;;;;;5051706;28;20479;-80
2022/05/08 02:46:49;;;;;;;17.90;10.10;;;14.30;99.90;;;;;;5051468;28;20207;-79
2022/05/08 02:49:15;;;;;;;12.97;8.40;;;14.20;99.90;;;;;;5051507;28;20669;-79
2022/05/08 02:51:41;;;;;;;11.67;8.67;;;14.10;99.90;;;;;;5051427;28;20306;-79
2022/05/08 02:54:07;;;;;;;12.33;8.17;;;14.10;99.90;;;;;;5051187;28;20624;-79
2022/05/08 02:59:18;;;;;;;10.63;8.20;;;14.00;99.90;;;;;;5052870;28;20708;-79
2022/05/08 03:01:43;;;;;;;11.53;8.00;;;14.00;99.90;;;;;;5051113;28;20426;-80
2022/05/08 03:04:09;;;;;;;12.77;7.30;;;14.00;99.90;;;;;;5051403;28;20449;-79
2022/05/08 03:06:35;;;;;;;9.80;7.47;;;13.90;99.90;;;;;;5051068;28;20588;-79
2022/05/08 03:09:01;;;;;;;9.80;6.60;;;13.90;99.90;;;;;;5051268;28;20180;-79
2022/05/08 03:11:27;;;;;;;11.97;7.00;;;13.80;99.90;;;;;;5050966;28;20462;-79
2022/05/08 03:14:02;;;;;;;10.07;7.07;;;13.70;99.90;;;;;;5051063;28;20422;-79
2022/05/08 03:16:28;;;;;;;9.60;6.00;;;13.60;99.90;;;;;;5050825;28;20686;-80
2022/05/08 03:18:55;;;;;;;7.47;5.60;;;13.60;99.90;;;;;;5050915;28;20422;-79
2022/05/08 03:21:22;;;;;;;9.23;6.47;;;13.50;99.90;;;;;;5050327;28;20509;-79
2022/05/08 03:23:48;;;;;;;8.87;6.47;;;13.40;99.90;;;;;;5050990;28;20459;-79
2022/05/08 03:26:14;;;;;;;12.63;6.53;;;13.40;99.90;;;;;;5050453;28;20828;-79
2022/05/08 03:28:42;;;;;;;6.80;5.40;;;13.40;99.90;;;;;;5053692;28;20458;-81
2022/05/08 03:31:09;;;;;;;8.93;5.50;;;13.40;99.90;;;;;;5053386;28;20473;-81
2022/05/08 03:33:35;;;;;;;8.10;5.93;;;13.30;99.90;;;;;;5052751;28;20951;-81
2022/05/08 03:36:02;;;;;;;9.07;5.37;;;13.30;99.90;;;;;;5053247;28;20434;-80
2022/05/08 03:38:33;;;;;;;11.70;6.43;;;13.30;99.90;;;;;;5052670;28;20428;-81
2022/05/08 03:41:00;;;;;;;9.73;5.37;;;13.20;99.90;;;;;;5052500;28;20873;-81
2022/05/08 03:43:27;;;;;;;10.43;6.77;;;13.20;99.90;;;;;;5052334;28;20808;-81
2022/05/08 03:45:53;;;;;;;7.67;5.80;;;13.10;99.90;;;;;;5052121;28;20426;-81
2022/05/08 03:48:20;;;;;;;13.20;6.47;;;13.10;99.90;;;;;;5052134;28;20418;-81
2022/05/08 03:50:46;;;;;;;10.23;6.33;;;13.00;99.90;;;;;;5052311;28;20204;-80
2022/05/08 03:53:12;;;;;;;8.30;5.70;;;13.00;99.90;;;;;;5051650;28;20418;-80
2022/05/08 03:55:38;;;;;;;9.07;6.07;;;13.00;99.90;;;;;;5051742;28;20933;-81
2022/05/08 03:58:04;;;;;;;9.10;5.63;;;13.00;99.90;;;;;;5051428;28;20794;-80
2022/05/08 04:00:30;;;;;;;11.87;5.97;;;13.00;99.90;;;;;;5051787;28;20817;-81
2022/05/08 04:02:56;;;;;;;7.30;5.63;;;13.00;99.90;;;;;;5051431;28;20425;-81
2022/05/08 04:05:22;;;;;;;9.73;6.77;;;13.00;99.90;;;;;;5051304;28;20182;-81
2022/05/08 04:07:48;;;;;;;13.03;6.40;;;13.00;99.90;;;;;;5051161;28;20199;-81
2022/05/08 04:10:14;;;;;;;11.60;7.03;;;13.00;99.90;;;;;;5051054;28;20508;-80
2022/05/08 04:12:44;;;;;;;10.67;6.40;;;13.00;99.90;;;;;;5051627;28;20425;-81
2022/05/08 04:17:55;;;;;;;11.03;6.83;;;13.00;99.90;;;;;;5052730;28;20861;-80
2022/05/08 04:20:21;;;;;;;10.67;6.27;;;12.90;99.90;;;;;;5050950;28;20445;-81
2022/05/08 04:25:31;;;;;;;8.17;5.83;;;13.00;99.90;;;;;;5052832;28;20980;-81
2022/05/08 04:27:57;;;;;;;12.80;7.00;;;13.00;99.90;;;;;;5050918;28;20544;-80
2022/05/08 04:30:22;;;;;;;13.93;6.87;;;13.00;99.90;;;;;;5050843;28;20267;-81
2022/05/08 04:32:48;;;;;;;10.57;6.60;;;12.90;99.90;;;;;;5052970;28;20241;-81
2022/05/08 04:35:14;;;;;;;13.00;7.53;;;13.00;99.90;;;;;;5054828;28;20266;-81
2022/05/08 04:37:39;;;;;;;11.63;7.47;;;12.90;99.90;;;;;;5054661;28;20230;-82
2022/05/08 04:40:06;;;;;;;10.30;5.83;;;13.00;99.90;;;;;;5054483;28;20176;-80
2022/05/08 04:42:32;;;;;;;12.33;7.10;;;13.00;99.90;;;;;;5054641;28;20180;-81
2022/05/08 04:44:59;;;;;;;12.17;6.93;;;13.00;99.90;;;;;;5054692;28;20790;-81
2022/05/08 04:47:26;;;;;;;13.43;8.93;;;13.00;99.90;;;;;;5053981;28;20445;-80
2022/05/08 04:49:51;;;;;;;14.43;9.50;;;13.10;99.90;;;;;;5054119;28;20432;-80
2022/05/08 04:52:17;;;;;;;10.17;7.53;;;13.10;99.90;;;;;;5054077;28;20540;-81
2022/05/08 04:54:43;;;;;;;11.10;8.43;;;13.20;99.90;;;;;;5053860;28;20180;-81
2022/05/08 04:57:09;;;;;;;13.70;8.50;;;13.20;99.90;;;;;;5053910;28;20495;-81
2022/05/08 04:59:35;;;;;;;15.70;10.27;;;13.20;99.90;;;;;;5053748;28;20176;-79
2022/05/08 05:02:02;;;;;;;12.80;8.80;;;13.20;99.90;;;;;;5053993;28;20422;-80
2022/05/08 05:04:28;;;;;;;13.40;9.20;;;13.20;99.90;;;;;;5053752;28;20418;-80
2022/05/08 05:06:54;;;;;;;12.43;9.07;;;13.20;99.90;;;;;;5053529;28;20952;-80
2022/05/08 05:09:20;;;;;;;14.80;8.90;;;13.40;99.90;;;;;;5053411;28;20433;-79
2022/05/08 05:11:46;;;;;;;11.50;7.93;;;13.50;99.90;;;;;;5053475;28;20465;-80
2022/05/08 05:14:12;;;;;;;12.90;9.63;;;13.50;99.90;;;;;;5053674;28;20226;-80
2022/05/08 05:16:38;;;;;;;11.80;9.20;;;13.60;99.90;;;;;;5053117;28;20559;-81
2022/05/08 05:19:04;;;;;;;11.27;8.27;;;13.50;99.90;;;;;;5053448;28;20903;-80
2022/05/08 05:21:31;;;;;;;13.13;8.97;;;13.50;99.90;;;;;;5052679;28;20423;-80
2022/05/08 05:23:57;;;;;;;14.10;9.00;;;13.50;99.90;;;;;;5053236;28;20460;-79
2022/05/08 05:26:23;;;;;;;15.10;8.83;;;13.60;99.90;;;;;;5052870;28;20526;-80
2022/05/08 05:28:48;;;;;;;12.57;9.10;;;13.70;99.90;;;;;;5053250;28;20421;-80
2022/05/08 05:31:14;;;;;;;12.73;7.93;;;13.70;99.90;;;;;;5052809;28;20993;-80
2022/05/08 05:33:40;;;;;;;13.50;8.73;;;13.90;99.90;;;;;;5053016;28;20183;-80
2022/05/08 05:36:06;;;;;;;14.10;7.63;;;13.90;99.90;;;;;;5052662;28;20426;-81
2022/05/08 05:38:33;;;;;;;13.67;8.80;;;14.00;99.90;;;;;;5052942;28;20176;-80
2022/05/08 05:40:59;;;;;;;12.60;7.30;;;13.90;99.90;;;;;;5052909;28;21013;-80
2022/05/08 05:43:24;;;;;;;10.77;7.43;;;13.90;99.90;;;;;;5052617;28;20493;-80
2022/05/08 05:47:49;;;;;;;11.17;6.90;;;13.80;99.90;;;;;;5052477;28;20559;-80
2022/05/08 05:48:37;;;;;;;13.00;7.77;;;13.80;99.90;;;;;;5054148;28;20836;-80
2022/05/08 05:51:05;;;;;;;12.10;7.80;;;13.90;99.90;;;;;;5052441;28;20952;-81
2022/05/08 05:53:35;;;;;;;13.90;7.70;;;13.80;99.90;;;;;;5052496;28;20468;-80
2022/05/08 05:56:01;;;;;;;12.53;7.53;;;14.00;99.90;;;;;;5052498;28;20425;-83
2022/05/08 05:58:27;;;;;;;11.13;7.00;;;14.00;99.90;;;;;;5054297;28;20410;-78
2022/05/08 06:00:53;;;;;;;11.77;7.30;;;14.00;99.90;;;;;;5054073;28;20422;-78
2022/05/08 06:03:22;;;;;;;14.40;7.33;;;14.00;99.90;;;;;;5054348;28;20422;-79
2022/05/08 06:05:48;;;;;;;13.87;7.53;;;14.00;99.90;;;;;;5054267;28;20198;-77
2022/05/08 06:08:13;;;;;;;11.00;7.47;;;14.00;99.90;;;;;;5054039;28;20857;-77
2022/05/08 06:10:39;;;;;;;10.33;7.00;;;14.20;99.90;;;;;;5053615;28;20208;-78
2022/05/08 06:13:05;;;;;;;11.97;7.10;;;14.20;99.90;;;;;;5053267;28;20415;-77
2022/05/08 06:15:31;;;;;;;11.80;6.73;;;14.30;99.90;;;;;;5053529;28;20280;-77
2022/05/08 06:17:57;;;;;;;14.87;7.20;;;14.40;99.90;;;;;;5053201;28;20210;-76
2022/05/08 06:20:23;;;;;;;11.67;7.37;;;14.50;99.90;;;;;;5054320;28;20238;-78
2022/05/08 06:22:49;;;;;;;11.83;6.77;;;14.50;99.90;;;;;;5054528;28;20497;-78
2022/05/08 06:25:14;;;;;;;12.43;6.83;;;14.50;99.90;;;;;;5055432;28;20176;-77
2022/05/08 06:27:40;;;;;;;10.20;7.50;;;14.30;99.90;;;;;;5083284;22;20753;-83
2022/05/08 06:30:07;;;;;;;9.80;7.10;;;14.30;99.90;;;;;;5075018;28;20266;-82
2022/05/08 06:32:34;;;;;;;12.30;6.93;;;14.40;99.90;;;;;;5075259;28;20213;-82
2022/05/08 06:35:00;;;;;;;12.03;7.17;;;14.40;99.90;;;;;;5073354;28;20483;-82
2022/05/08 06:37:25;;;;;;;12.30;6.37;;;14.40;99.90;;;;;;5072958;28;20845;-82
2022/05/08 06:39:51;;;;;;;11.53;5.87;;;14.50;99.90;;;;;;5072940;28;20206;-82
2022/05/08 06:42:16;;;;;;;8.83;6.20;;;14.80;99.90;;;;;;5072613;28;20183;-82
2022/05/08 06:44:43;;;;;;;14.23;8.17;;;14.90;99.90;;;;;;5073393;28;20179;-82
2022/05/08 06:47:08;;;;;;;13.77;6.93;;;14.70;99.90;;;;;;5072844;28;20232;-82
2022/05/08 06:49:34;;;;;;;9.07;6.20;;;14.50;99.90;;;;;;5073035;28;20858;-82
2022/05/08 06:52:00;;;;;;;10.70;7.20;;;14.40;99.90;;;;;;5072536;28;20252;-81
2022/05/08 06:54:26;;;;;;;7.63;5.50;;;14.60;99.90;;;;;;5072122;28;20175;-82
2022/05/08 06:56:53;;;;;;;7.67;6.10;;;14.80;99.90;;;;;;5073919;28;20167;-82
2022/05/08 07:02:03;;;;;;;8.33;5.23;;;15.10;99.90;;;;;;5073631;28;20483;-82
2022/05/08 07:04:28;;;;;;;8.40;5.43;;;15.10;99.90;;;;;;5071389;28;21109;-82
2022/05/08 07:06:54;;;;;;;9.17;5.37;;;15.40;99.90;;;;;;5073411;28;20540;-83
2022/05/08 07:09:20;;;;;;;8.63;5.40;;;15.60;99.90;;;;;;5073397;28;20704;-82
2022/05/08 07:11:47;;;;;;;10.80;5.10;;;15.60;99.90;;;;;;5071343;28;20202;-82
2022/05/08 07:14:13;;;;;;;10.03;5.67;;;15.60;99.90;;;;;;5072592;28;20252;-82
2022/05/08 07:16:39;;;;;;;10.03;5.40;;;15.60;99.90;;;;;;5071534;28;20798;-81
2022/05/08 07:19:04;;;;;;;9.40;4.80;;;15.70;99.90;;;;;;5073357;28;20436;-81
2022/05/08 07:21:30;;;;;;;8.33;5.40;;;15.70;99.90;;;;;;5071274;28;20186;-80
2022/05/08 07:23:55;;;;;;;11.20;5.83;;;15.70;99.90;;;;;;5072238;28;20202;-82
2022/05/08 07:26:21;;;;;;;8.23;5.50;;;15.70;99.90;;;;;;5071224;28;20186;-81
2022/05/08 07:28:47;;;;;;;7.70;5.23;;;16.00;99.90;;;;;;5072044;28;20211;-82
2022/05/08 07:31:13;;;;;;;6.67;4.37;;;16.00;99.90;;;;;;5070723;28;20461;-82
2022/05/08 07:33:39;;;;;;;11.00;4.33;;;16.20;99.90;;;;;;5070944;28;20178;-81
2022/05/08 07:36:15;;;;;;;8.03;4.50;;;16.40;99.90;;;;;;5072182;28;20698;-82
2022/05/08 07:38:45;;;;;;;11.40;4.80;;;16.50;99.90;;;;;;5072107;28;20501;-83
2022/05/08 07:41:12;;;;;;;7.40;4.30;;;16.60;99.90;;;;;;5072917;28;20491;-83
2022/05/08 07:43:39;;;;;;;8.00;4.00;;;16.60;99.90;;;;;;5058576;28;20468;-82
2022/05/08 07:46:05;;;;;;;8.37;4.60;;;16.90;99.90;;;;;;5052421;28;20799;-82
2022/05/08 07:48:32;;;;;;;8.23;4.23;;;16.80;99.90;;;;;;5052818;28;20434;-83
2022/05/08 07:50:59;;;;;;;12.20;4.60;;;17.20;99.90;;;;;;5052238;28;20995;-82
2022/05/08 07:53:26;;;;;;;6.40;3.80;;;17.20;99.90;;;;;;5071709;28;20795;-82
2022/05/08 07:55:52;;;;;;;7.67;4.53;;;16.80;99.90;;;;;;5072687;28;20516;-82
2022/05/08 07:58:18;;;;;;;9.63;4.50;;;16.90;99.90;;;;;;5072217;28;20498;-83
2022/05/08 08:00:44;;;;;;;9.13;4.70;;;17.20;99.90;;;;;;5072686;28;20296;-82
2022/05/08 08:03:10;;;;;;;9.97;4.60;;;17.70;99.90;;;;;;5072196;28;20936;-82
2022/05/08 08:05:36;;;;;;;14.23;5.10;;;18.20;99.90;;;;;;5069120;28;20434;-84
2022/05/08 08:08:01;;;;;;;6.73;4.10;;;18.70;99.90;;;;;;5060621;28;20708;-84
2022/05/08 08:10:29;;;;;;;9.63;5.03;;;18.50;99.90;;;;;;5064496;28;20176;-84
2022/05/08 08:12:55;;;;;;;11.00;5.13;;;19.00;99.90;;;;;;5057725;28;20255;-84
2022/05/08 08:15:21;;;;;;;6.83;3.90;;;19.00;99.90;;;;;;5057845;28;20422;-84
2022/05/08 08:17:46;;;;;;;8.60;4.47;;;19.30;99.90;;;;;;5057703;28;20518;-83
2022/05/08 08:20:12;;;;;;;15.10;4.30;;;19.00;99.90;;;;;;5058981;28;20182;-83
2022/05/08 08:22:37;;;;;;;7.53;4.00;;;18.60;99.90;;;;;;5059028;28;20176;-84
2022/05/08 08:25:03;;;;;;;9.93;4.37;;;18.90;99.90;;;;;;5055064;28;20548;-83
2022/05/08 08:27:29;;;;;;;7.37;4.10;;;19.10;99.90;;;;;;5071797;22;20179;-79
2022/05/08 08:29:55;;;;;;;8.80;4.27;;;19.60;99.90;;;;;;5039997;28;20917;-79
2022/05/08 08:32:24;;;;;;;7.97;3.80;;;19.10;99.90;;;;;;5038070;28;20208;-79
2022/05/08 08:34:50;;;;;;;7.20;3.83;;;19.80;99.90;;;;;;5039066;28;20701;-79
2022/05/08 08:37:16;;;;;;;7.73;3.90;;;20.10;99.90;;;;;;5035117;28;20435;-80
2022/05/08 08:39:42;;;;;;;5.40;3.23;;;21.00;99.90;;;;;;5018716;28;20715;-79
2022/05/08 08:42:18;;;;;;;6.47;3.60;;;20.40;99.90;;;;;;5017788;28;20431;-79
2022/05/08 08:47:43;;;;;;;6.50;3.90;;;20.70;99.90;;;;;;5019938;28;20465;-79
2022/05/08 08:50:09;;;;;;;4.60;2.97;;;20.30;99.90;;;;;;5018640;28;20469;-79
2022/05/08 08:52:38;;;;;;;8.97;4.07;;;20.10;99.90;;;;;;5018213;28;20488;-79
2022/05/08 08:55:08;;;;;;;6.93;4.33;;;20.30;99.90;;;;;;5018579;28;20981;-79
2022/05/08 08:57:34;;;;;;;8.10;4.00;;;20.40;99.90;;;;;;5018105;28;20439;-80
2022/05/08 09:00:00;;;;;;;10.13;5.40;;;20.30;99.90;;;;;;5018208;28;20415;-79
2022/05/08 09:02:26;;;;;;;8.47;3.70;;;20.90;99.90;;;;;;5017687;28;20431;-79
2022/05/08 09:04:54;;;;;;;7.33;3.10;;;22.10;99.90;;;;;;5018145;28;20419;-79
2022/05/08 09:07:41;;;;;;;7.40;3.40;;;23.50;99.90;;;;;;5021334;28;20244;-80
2022/05/08 09:10:22;;;;;;;5.43;3.63;;;24.90;99.90;;;;;;5021346;28;20427;-79
2022/05/08 09:12:56;;;;;;;7.67;4.10;;;25.40;96.50;;;;;;5021287;28;20428;-80
2022/05/08 09:15:37;;;;;;;6.53;3.60;;;25.40;93.70;;;;;;5020799;28;20413;-80
2022/05/08 09:18:12;;;;;;;7.60;4.00;;;25.80;93.40;;;;;;5020375;28;20709;-80
2022/05/08 09:20:43;;;;;;;8.23;4.10;;;26.40;90.20;;;;;;5021150;28;20894;-80
2022/05/08 09:23:14;;;;;;;8.23;3.83;;;27.10;82.70;;;;;;5021653;28;20420;-80
2022/05/08 09:26:02;;;;;;;6.63;3.20;;;26.60;79.30;;;;;;5021403;28;20436;-80
2022/05/08 09:28:29;;;;;;;5.27;3.30;;;26.40;77.30;;;;;;5021377;28;20461;-80
2022/05/08 09:30:57;;;;;;;6.20;3.70;;;28.10;77.00;;;;;;5020662;28;20463;-80
2022/05/08 09:33:27;;;;;;;5.73;3.67;;;29.10;73.00;;;;;;5021551;28;20444;-80
2022/05/08 09:35:53;;;;;;;10.40;4.50;;;30.30;67.90;;;;;;5021626;28;20512;-80
2022/05/08 09:38:19;;;;;;;5.90;3.60;;;31.10;63.60;;;;;;5020800;28;20442;-80
2022/05/08 09:40:45;;;;;;;7.17;3.60;;;31.40;56.40;;;;;;5022664;28;20442;-81
2022/05/08 09:43:29;;;;;;;6.13;3.30;;;31.60;54.20;;;;;;5019026;28;20424;-80
2022/05/08 09:45:59;;;;;;;6.27;3.10;;;32.50;52.70;;;;;;5018109;28;20204;-80
2022/05/08 09:48:29;;;;;;;5.23;3.40;;;33.30;50.40;;;;;;5018018;28;20455;-81
2022/05/08 09:51:04;;;;;;;6.00;3.10;;;33.90;48.70;;;;;;5017383;28;20483;-81
2022/05/08 09:53:31;;;;;;;7.90;2.93;;;32.30;43.10;;;;;;5017916;28;20423;-80
2022/05/08 09:55:59;;;;;;;6.37;2.60;;;31.10;46.20;;;;;;5017285;28;20502;-80
2022/05/08 09:58:25;;;;;;;5.50;2.60;;;29.50;46.80;;;;;;5016188;28;20416;-81
2022/05/08 10:00:52;;;;;;;4.20;2.73;;;28.70;49.00;;;;;;5016640;28;20506;-80
2022/05/08 10:03:21;;;;;;;5.83;2.60;;;27.90;49.60;;;;;;5016775;28;20507;-80
2022/05/08 10:05:48;;;;;;;5.03;2.90;;;28.50;52.90;;;;;;5016329;28;20412;-80
2022/05/08 10:08:16;;;;;;;5.60;2.80;;;29.00;52.90;;;;;;5016054;28;20563;-80
2022/05/08 10:13:53;;;;;;;5.10;2.87;;;28.90;50.20;;;;;;5020190;28;20495;-80
2022/05/08 10:16:56;;;;;;;5.57;3.00;;;27.90;51.00;;;;;;5017542;28;20432;-80
2022/05/08 10:19:28;;;;;;;4.10;2.70;;;26.70;53.10;;;;;;5017355;28;20422;-80
2022/05/08 10:21:56;;;;;;;4.53;2.70;;;26.50;54.30;;;;;;5017009;28;20945;-80
2022/05/08 10:24:32;;;;;;;4.37;2.43;;;26.40;53.90;;;;;;5017269;28;20420;-80
2022/05/08 10:27:24;;;;;;;5.63;2.33;;;25.80;58.40;;;;;;5016724;28;20527;-80
2022/05/08 10:29:50;;;;;;;4.43;2.33;;;26.20;57.90;;;;;;5015054;28;20462;-80
2022/05/08 10:32:31;;;;;;;4.80;2.70;;;26.80;57.30;;;;;;5015916;28;20468;-80
2022/05/08 10:35:10;;;;;;;5.27;2.50;;;26.90;56.40;;;;;;5016621;28;20573;-80
2022/05/08 10:37:37;;;;;;;6.20;2.70;;;25.40;54.60;;;;;;5016132;28;20439;-80
2022/05/08 10:40:03;;;;;;;5.57;2.53;;;24.90;57.80;;;;;;5016180;28;20435;-80
2022/05/08 10:42:50;;;;;;;5.70;2.30;;;24.20;59.40;;;;;;5015782;28;20431;-79
2022/05/08 10:45:33;;;;;;;7.00;2.20;;;23.80;59.40;;;;;;5017147;28;20420;-80
2022/05/08 10:48:08;;;;;;;5.90;2.20;;;24.20;65.40;;;;;;5015663;28;21004;-80
2022/05/08 10:50:44;;;;;;;4.23;2.53;;;24.30;63.70;;;;;;5016297;28;20565;-79
2022/05/08 10:53:32;;;;;;;4.10;1.90;;;24.00;70.30;;;;;;5016402;28;20494;-80
2022/05/08 10:56:05;;;;;;;6.57;2.73;;;24.30;65.10;;;;;;5016274;28;20424;-79
2022/05/08 10:58:33;;;;;;;4.53;2.30;;;23.90;68.30;;;;;;5016454;28;20428;-80
2022/05/08 11:01:02;;;;;;;6.50;2.33;;;23.70;67.70;;;;;;5015366;28;20443;-80
2022/05/08 11:03:29;;;;;;;5.97;2.20;;;23.60;65.80;;;;;;5016822;28;20430;-79
2022/05/08 11:05:56;;;;;;;3.00;1.83;;;23.20;69.60;;;;;;5016082;28;20428;-79
2022/05/08 11:08:33;;;;;;;3.53;1.90;;;22.90;68.10;;;;;;5016740;28;20430;-79
2022/05/08 11:11:10;;;;;;;5.50;1.70;;;23.00;77.40;;;;;;5016203;28;20485;-80
2022/05/08 11:13:49;;;;;;;7.77;2.00;;;22.70;68.10;;;;;;5017910;28;20420;-79
2022/05/08 11:16:33;;;;;;;5.00;2.70;;;22.80;72.00;;;;;;5015735;28;20551;-80
2022/05/08 11:19:04;;;;;;;2.73;1.67;;;22.70;68.90;;;;;;5015315;28;20420;-80
2022/05/08 11:21:30;;;;;;;2.80;1.50;;;22.60;70.20;;;;;;5015714;28;20415;-80
2022/05/08 11:23:56;;;;;;;2.70;1.50;;;22.70;69.30;;;;;;5015238;28;20408;-80
2022/05/08 11:26:34;;;;;;;3.93;2.00;;;22.70;67.30;;;;;;5014919;28;20251;-80
2022/05/08 11:29:01;;;;;;;4.30;1.70;;;22.60;67.50;;;;;;5015671;28;20522;-80
2022/05/08 11:31:30;;;;;;;5.00;1.67;;;22.60;69.70;;;;;;5015214;28;20785;-80
2022/05/08 11:36:44;;;;;;;4.03;1.90;;;22.90;68.10;;;;;;5016387;28;20961;-80
2022/05/08 11:39:18;;;;;;;4.17;1.90;;;22.80;69.50;;;;;;5015245;28;20438;-80
2022/05/08 11:41:49;;;;;;;6.33;1.63;;;22.80;65.20;;;;;;5014947;28;20457;-80
2022/05/08 11:44:15;;;;;;;2.90;1.53;;;22.90;68.80;;;;;;5015290;28;20420;-80
2022/05/08 11:46:45;;;;;;;3.37;1.43;;;23.10;68.00;;;;;;5014760;28;20801;-80
2022/05/08 11:49:23;;;;;;;4.03;1.80;;;22.90;66.30;;;;;;5015231;28;20181;-80
2022/05/08 11:51:54;;;;;;;5.00;1.80;;;23.00;67.10;;;;;;5014961;28;20467;-80
2022/05/08 11:54:32;;;;;;;3.20;1.70;;;23.20;64.60;;;;;;5014630;28;20416;-80
2022/05/08 11:57:14;;;;;;;3.80;2.17;;;23.30;65.90;;;;;;5014779;28;20465;-80
2022/05/08 11:59:42;;;;;;;5.00;1.73;;;23.40;68.00;;;;;;5014407;28;20424;-80
2022/05/08 12:02:09;;;;;;;6.60;2.17;;;23.40;65.20;;;;;;5014512;28;20803;-79
2022/05/08 12:04:35;;;;;;;3.47;1.60;;;23.40;61.50;;;;;;5015021;28;20462;-80
2022/05/08 12:07:05;;;;;;;2.80;1.63;;;23.40;62.20;;;;;;5014588;28;20447;-80
2022/05/08 12:09:32;;;;;;;4.03;1.70;;;23.20;60.30;;;;;;5015107;28;20192;-80
2022/05/08 12:12:20;;;;;;;5.30;1.73;;;23.70;62.00;;;;;;5014314;28;20479;-80
2022/05/08 12:14:46;;;;;;;5.77;2.50;;;24.00;59.40;;;;;;5015231;28;20412;-79
2022/05/08 12:17:12;;;;;;;4.73;1.70;;;24.30;61.40;;;;;;5014495;28;20457;-79
2022/05/08 12:19:53;;;;;;;5.20;1.97;;;24.20;61.20;;;;;;5016919;28;20177;-79
2022/05/08 12:22:26;;;;;;;4.00;1.73;;;24.40;57.20;;;;;;5016574;28;20569;-80
2022/05/08 12:24:53;;;;;;;6.33;2.10;;;24.30;56.10;;;;;;5015545;28;20434;-80
2022/05/08 12:36:50;;;;;;;3.93;1.77;;;26.20;55.20;;;;;;5009398;28;20494;-82
2022/05/08 12:39:40;;;;;;;3.30;1.70;;;26.00;57.50;;;;;;5009762;28;20443;-82
2022/05/08 12:42:45;;;;;;;4.87;2.13;;;25.70;53.90;;;;;;5009355;28;20427;-82
2022/05/08 12:49:12;;;;;;;3.57;1.53;;;24.70;54.60;;;;;;4934656;28;20486;-82
2022/05/08 13:02:33;;;;;;;4.27;1.47;;;24.30;54.50;;;;;;4949656;29;20425;-82
2022/05/08 13:05:12;;;;;;;4.17;1.70;;;25.10;55.80;;;;;;4954985;29;20530;-82
2022/05/08 13:07:58;;;;;;;3.90;1.60;;;24.60;52.60;;;;;;4954217;28;20454;-82
2022/05/08 13:10:24;;;;;;;3.80;1.80;;;24.50;55.70;;;;;;5028836;28;20937;-82
2022/05/08 13:12:53;;;;;;;4.27;1.80;;;24.70;55.60;;;;;;5055002;28;20454;-82
2022/05/08 13:16:05;;;;;;;3.67;1.60;;;24.90;55.20;;;;;;5037075;28;20638;-82
2022/05/08 13:18:31;;;;;;;3.20;1.90;;;25.60;54.00;;;;;;5021926;28;20457;-83
2022/05/08 13:20:57;;;;;;;5.10;1.73;;;26.60;50.90;;;;;;5036650;28;20430;-82
2022/05/08 13:23:31;;;;;;;2.90;1.43;;;27.40;52.70;;;;;;5054805;28;20172;-82
2022/05/08 13:25:57;;;;;;;3.10;1.30;;;27.40;51.20;;;;;;5036832;28;20661;-82
2022/05/08 13:28:23;;;;;;;3.17;1.63;;;27.10;48.80;;;;;;5036645;28;20863;-82
2022/05/08 13:30:49;;;;;;;2.90;1.60;;;27.10;49.60;;;;;;5054315;28;20415;-82
2022/05/08 13:33:37;;;;;;;4.10;1.20;;;27.50;49.50;;;;;;5054635;28;20171;-82